Time;durP1;ratioP1;P1;durP2;ratioP2;P2;SDS_P1;SDS_P2;PMS_P1;PMS_P2;Temp;Humidity;BMP_temperature;BMP_pressure;BME280_temperature;BME280_humidity;BME280_pressure;Samples;Min_cycle;Max_cycle;Signal;HPM_P1;HPM_P2
2022/10/18 00:01:38;;;;;;;40.08;17.08;;;13.90;99.90;;;;;;7409574;19;19928;-89
2022/10/18 00:04:10;;;;;;;48.45;20.40;;;13.90;99.90;;;;;;7409351;19;19938;-89
2022/10/18 00:06:39;;;;;;;35.83;17.45;;;13.90;99.90;;;;;;7411560;19;19978;-89
2022/10/18 00:09:08;;;;;;;39.50;16.42;;;13.90;99.90;;;;;;7405040;19;20265;-89
2022/10/18 00:11:37;;;;;;;45.10;20.80;;;13.90;99.90;;;;;;7411154;19;20321;-90
2022/10/18 00:14:06;;;;;;;46.42;19.55;;;13.90;99.90;;;;;;7412057;19;19962;-88
2022/10/18 00:16:36;;;;;;;44.25;18.90;;;13.80;99.90;;;;;;7408864;19;19978;-89
2022/10/18 00:19:05;;;;;;;23.10;12.20;;;13.80;99.90;;;;;;7408962;19;20455;-89
2022/10/18 00:21:37;;;;;;;39.35;18.27;;;13.70;99.90;;;;;;7411537;19;19918;-89
2022/10/18 00:24:07;;;;;;;38.22;19.85;;;13.70;99.90;;;;;;7406342;19;19914;-89
2022/10/18 00:26:35;;;;;;;41.15;18.00;;;13.70;99.90;;;;;;7403556;19;19926;-89
2022/10/18 00:29:06;;;;;;;51.30;20.02;;;13.60;99.90;;;;;;7410332;19;20284;-89
2022/10/18 00:31:36;;;;;;;38.28;19.27;;;13.60;99.90;;;;;;7409200;19;19929;-90
2022/10/18 00:34:07;;;;;;;24.65;14.27;;;13.50;99.90;;;;;;7410646;19;19918;-89
2022/10/18 00:36:39;;;;;;;32.15;16.58;;;13.50;99.90;;;;;;7411688;19;20354;-89
2022/10/18 00:39:09;;;;;;;29.50;16.52;;;13.50;99.90;;;;;;7408297;19;19919;-89
2022/10/18 00:41:39;;;;;;;35.35;17.40;;;13.50;99.90;;;;;;7408604;19;19919;-89
2022/10/18 00:44:09;;;;;;;;;;;13.50;99.90;;;;;;7403181;19;20297;-89
2022/10/18 00:46:39;;;;;;;32.03;14.85;;;13.50;99.90;;;;;;7407261;19;19921;-89
2022/10/18 00:49:11;;;;;;;31.83;15.82;;;13.50;99.90;;;;;;7411293;19;19921;-89
2022/10/18 00:51:46;;;;;;;31.95;16.23;;;13.50;99.90;;;;;;7410727;19;19915;-89
2022/10/18 00:54:16;;;;;;;32.70;15.45;;;13.60;99.90;;;;;;7408525;19;19915;-88
2022/10/18 00:56:46;;;;;;;29.83;15.05;;;13.50;99.90;;;;;;7409302;19;19926;-89
2022/10/18 00:59:15;;;;;;;;;;;13.50;99.90;;;;;;7399655;19;20015;-89
2022/10/18 01:01:44;;;;;;;37.10;15.00;;;13.50;99.90;;;;;;7397135;19;19998;-89
2022/10/18 01:04:20;;;;;;;32.53;17.25;;;13.50;99.90;;;;;;7409532;19;19935;-89
2022/10/18 01:07:12;;;;;;;37.72;15.38;;;13.40;99.90;;;;;;7411675;19;19940;-89
2022/10/18 01:09:46;;;;;;;30.58;13.32;;;13.40;99.90;;;;;;7407895;19;19911;-89
2022/10/18 01:12:26;;;;;;;37.78;16.25;;;13.40;99.90;;;;;;7411440;19;19978;-89
2022/10/18 01:15:03;;;;;;;36.42;15.52;;;13.40;99.90;;;;;;7407591;19;20380;-88
2022/10/18 01:17:42;;;;;;;23.60;12.95;;;13.30;99.90;;;;;;7403337;19;20320;-89
2022/10/18 01:20:47;;;;;;;31.05;14.57;;;13.30;99.90;;;;;;7408245;19;19914;-89
2022/10/18 01:23:28;;;;;;;31.77;14.57;;;13.30;99.90;;;;;;7409036;19;19914;-89
2022/10/18 01:26:04;;;;;;;34.78;15.48;;;13.30;99.90;;;;;;7410736;19;19933;-89
2022/10/18 01:28:49;;;;;;;36.65;16.75;;;13.30;99.90;;;;;;7409906;19;19922;-89
2022/10/18 01:31:24;;;;;;;31.30;15.38;;;13.20;99.90;;;;;;7411063;19;19922;-89
2022/10/18 01:33:58;;;;;;;38.65;14.98;;;13.20;99.90;;;;;;7407473;19;19952;-89
2022/10/18 01:36:32;;;;;;;28.50;13.30;;;13.20;99.90;;;;;;7401805;19;19918;-88
2022/10/18 01:39:04;;;;;;;34.17;16.33;;;13.20;99.90;;;;;;7410588;19;19915;-89
2022/10/18 01:41:36;;;;;;;35.28;14.88;;;13.20;99.90;;;;;;7406717;19;19932;-89
2022/10/18 01:44:08;;;;;;;39.28;16.00;;;13.10;99.90;;;;;;7409142;19;19922;-89
2022/10/18 01:46:42;;;;;;;36.28;16.13;;;13.10;99.90;;;;;;7407057;19;20312;-89
2022/10/18 01:49:11;;;;;;;37.28;15.27;;;13.10;99.90;;;;;;7408705;19;19915;-89
2022/10/18 01:51:40;;;;;;;33.80;16.02;;;13.00;99.90;;;;;;7405504;19;19930;-89
2022/10/18 01:54:11;;;;;;;38.60;16.15;;;13.00;99.90;;;;;;7408319;19;19970;-89
2022/10/18 01:56:47;;;;;;;37.25;17.23;;;12.90;99.90;;;;;;7408851;19;19974;-89
2022/10/18 01:59:42;;;;;;;30.77;14.25;;;12.90;99.90;;;;;;7407942;19;19968;-89
2022/10/18 02:02:21;;;;;;;22.20;11.15;;;12.90;99.90;;;;;;7410113;19;19930;-89
2022/10/18 02:04:56;;;;;;;36.38;13.93;;;12.80;99.90;;;;;;7406974;19;19915;-90
2022/10/18 02:07:31;;;;;;;43.13;17.23;;;12.90;99.90;;;;;;7405964;19;20328;-89
2022/10/18 02:10:09;;;;;;;34.22;14.73;;;12.90;99.90;;;;;;7406906;19;20368;-89
2022/10/18 02:12:41;;;;;;;33.17;15.82;;;12.80;99.90;;;;;;7405863;19;19914;-89
2022/10/18 02:15:13;;;;;;;26.77;12.20;;;12.80;99.90;;;;;;7406559;19;19919;-89
2022/10/18 02:17:46;;;;;;;34.55;15.32;;;12.80;99.90;;;;;;7405754;19;19971;-89
2022/10/18 02:20:21;;;;;;;35.70;13.65;;;12.80;99.90;;;;;;7405682;19;19990;-89
2022/10/18 02:22:53;;;;;;;28.27;14.75;;;12.70;99.90;;;;;;7404607;19;19918;-89
2022/10/18 02:25:25;;;;;;;29.83;14.95;;;12.80;99.90;;;;;;7405554;19;19922;-89
2022/10/18 02:27:54;;;;;;;34.38;15.88;;;12.80;99.90;;;;;;7405661;19;19985;-89
2022/10/18 02:30:27;;;;;;;31.05;13.63;;;12.80;99.90;;;;;;7405426;19;20252;-88
2022/10/18 02:33:02;;;;;;;33.13;14.18;;;12.80;99.90;;;;;;7403214;19;20315;-89
2022/10/18 02:35:35;;;;;;;32.78;14.77;;;12.80;99.90;;;;;;7405503;19;19982;-89
2022/10/18 02:38:09;;;;;;;41.88;14.60;;;12.80;99.90;;;;;;7406194;19;20395;-89
2022/10/18 02:40:38;;;;;;;39.80;15.77;;;12.80;99.90;;;;;;7405470;19;19915;-89
2022/10/18 02:43:08;;;;;;;36.50;16.05;;;12.70;99.90;;;;;;7404567;19;19914;-89
2022/10/18 02:45:37;;;;;;;50.13;18.92;;;12.80;99.90;;;;;;7403067;19;19921;-89
2022/10/18 02:48:09;;;;;;;35.78;13.13;;;12.80;99.90;;;;;;7408321;19;19967;-89
2022/10/18 02:50:39;;;;;;;46.45;17.35;;;12.80;99.90;;;;;;7404899;19;19974;-89
2022/10/18 02:53:08;;;;;;;45.67;16.92;;;12.70;99.90;;;;;;7406098;19;19931;-89
2022/10/18 02:55:37;;;;;;;33.83;14.18;;;12.70;99.90;;;;;;7406120;19;19919;-89
2022/10/18 02:58:05;;;;;;;35.38;14.05;;;12.70;99.90;;;;;;7407705;19;19950;-87
2022/10/18 03:00:34;;;;;;;41.13;14.57;;;12.70;99.90;;;;;;7406980;19;19926;-89
2022/10/18 03:03:03;;;;;;;36.92;16.15;;;12.70;99.90;;;;;;7406326;19;19922;-89
2022/10/18 03:05:35;;;;;;;32.58;12.98;;;12.60;99.90;;;;;;7404589;19;19919;-89
2022/10/18 03:08:05;;;;;;;40.40;14.77;;;12.60;99.90;;;;;;7403956;19;19927;-89
2022/10/18 03:10:34;;;;;;;37.58;15.55;;;12.60;99.90;;;;;;7404475;19;19926;-89
2022/10/18 03:13:03;;;;;;;40.15;14.60;;;12.60;99.90;;;;;;7408230;19;19923;-89
2022/10/18 03:15:32;;;;;;;47.70;17.38;;;12.60;99.90;;;;;;7406225;19;19922;-89
2022/10/18 03:18:03;;;;;;;88.18;20.13;;;12.70;99.90;;;;;;7404972;19;19925;-89
2022/10/18 03:20:34;;;;;;;51.65;18.77;;;12.70;99.90;;;;;;7402508;19;19918;-89
2022/10/18 03:23:04;;;;;;;35.25;14.65;;;12.70;99.90;;;;;;7401904;19;19930;-89
2022/10/18 03:25:37;;;;;;;52.83;16.00;;;12.70;99.90;;;;;;7406105;19;19949;-89
2022/10/18 03:28:07;;;;;;;105.13;19.50;;;12.70;99.90;;;;;;7406666;19;19914;-89
2022/10/18 03:30:37;;;;;;;72.53;16.38;;;12.60;99.90;;;;;;7406593;19;19939;-89
2022/10/18 03:33:07;;;;;;;97.82;19.75;;;12.60;99.90;;;;;;7405328;19;19953;-88
2022/10/18 03:35:39;;;;;;;216.02;25.80;;;12.60;99.90;;;;;;7403543;19;19919;-89
2022/10/18 03:38:08;;;;;;;160.85;22.50;;;12.60;99.90;;;;;;7401688;19;19919;-89
2022/10/18 03:40:37;;;;;;;105.00;18.70;;;12.60;99.90;;;;;;7407330;19;19914;-89
2022/10/18 03:43:06;;;;;;;150.90;23.08;;;12.60;99.90;;;;;;7405280;19;19926;-89
2022/10/18 03:45:35;;;;;;;208.93;28.38;;;12.60;99.90;;;;;;7404902;19;19918;-88
2022/10/18 03:48:05;;;;;;;71.45;15.70;;;12.60;99.90;;;;;;7403479;19;19939;-89
2022/10/18 03:50:38;;;;;;;58.22;13.52;;;12.60;99.90;;;;;;7404063;19;20325;-89
2022/10/18 03:53:07;;;;;;;39.20;12.18;;;12.60;99.90;;;;;;7405750;19;19915;-88
2022/10/18 03:55:38;;;;;;;59.15;13.40;;;12.60;99.90;;;;;;7403058;19;19930;-89
2022/10/18 03:58:07;;;;;;;55.70;12.65;;;12.70;99.90;;;;;;7406194;19;19914;-89
2022/10/18 04:00:36;;;;;;;94.60;15.63;;;12.70;99.90;;;;;;7404639;19;20402;-89
2022/10/18 04:03:05;;;;;;;61.33;14.32;;;12.70;99.90;;;;;;7403255;19;19937;-89
2022/10/18 04:05:35;;;;;;;30.70;8.60;;;12.70;99.90;;;;;;7402468;19;20340;-89
2022/10/18 04:08:07;;;;;;;53.38;13.70;;;12.70;99.90;;;;;;7403688;19;20337;-89
2022/10/18 04:10:36;;;;;;;118.53;18.33;;;12.70;99.90;;;;;;7399996;19;19914;-89
2022/10/18 04:13:05;;;;;;;69.55;13.30;;;12.70;99.90;;;;;;7403637;19;19918;-89
2022/10/18 04:15:34;;;;;;;22.17;7.97;;;12.70;99.90;;;;;;7404096;19;20351;-89
2022/10/18 04:18:03;;;;;;;;;;;12.70;99.90;;;;;;7405323;19;19914;-89
2022/10/18 04:20:32;;;;;;;17.77;7.85;;;12.80;99.90;;;;;;7402986;19;20589;-88
2022/10/18 04:23:01;;;;;;;36.60;9.98;;;12.80;99.90;;;;;;7410724;19;19926;-88
2022/10/18 04:25:32;;;;;;;137.63;19.20;;;12.80;99.90;;;;;;7408599;19;19923;-89
2022/10/18 04:28:03;;;;;;;22.52;5.88;;;12.80;99.90;;;;;;7410352;19;19930;-89
2022/10/18 04:30:32;;;;;;;67.18;12.40;;;12.80;99.90;;;;;;7411865;19;19919;-88
2022/10/18 04:33:01;;;;;;;337.42;54.67;;;12.90;99.90;;;;;;7412505;19;19914;-88
2022/10/18 04:35:30;;;;;;;43.80;9.30;;;12.90;99.90;;;;;;7412202;19;20332;-88
2022/10/18 04:37:58;;;;;;;129.95;18.25;;;12.90;99.90;;;;;;7411726;19;20334;-89
2022/10/18 04:40:27;;;;;;;16.63;6.35;;;12.90;99.90;;;;;;7408716;19;20373;-88
2022/10/18 04:42:59;;;;;;;39.63;10.15;;;12.90;99.90;;;;;;7412004;19;20345;-88
2022/10/18 04:45:27;;;;;;;36.55;8.40;;;12.90;99.90;;;;;;7408651;19;19926;-89
2022/10/18 04:47:56;;;;;;;33.78;9.93;;;12.90;99.90;;;;;;7411416;19;19926;-88
2022/10/18 04:50:25;;;;;;;51.42;10.65;;;12.90;99.90;;;;;;7407837;19;20255;-88
2022/10/18 04:52:55;;;;;;;118.28;17.40;;;12.90;99.90;;;;;;7412086;19;19925;-89
2022/10/18 04:55:23;;;;;;;154.90;22.90;;;12.80;99.90;;;;;;7411768;19;19918;-88
2022/10/18 04:57:53;;;;;;;23.95;7.35;;;12.70;99.90;;;;;;7407809;19;19961;-88
2022/10/18 05:00:25;;;;;;;216.30;20.73;;;12.70;99.90;;;;;;7412204;19;19926;-88
2022/10/18 05:02:59;;;;;;;39.33;8.52;;;12.70;99.90;;;;;;7410808;19;20270;-87
2022/10/18 05:05:28;;;;;;;85.97;14.13;;;12.80;99.90;;;;;;7409283;19;19954;-87
2022/10/18 05:07:56;;;;;;;79.22;13.95;;;12.80;99.90;;;;;;7410313;19;19927;-88
2022/10/18 05:10:25;;;;;;;91.38;12.15;;;12.80;99.90;;;;;;7407950;19;19926;-88
2022/10/18 05:12:54;;;;;;;69.53;10.85;;;12.80;99.90;;;;;;7409487;19;19914;-88
2022/10/18 05:15:26;;;;;;;125.15;16.63;;;12.80;99.90;;;;;;7408419;19;19926;-88
2022/10/18 05:17:54;;;;;;;114.35;15.45;;;12.80;99.90;;;;;;7408697;19;19919;-89
2022/10/18 05:20:24;;;;;;;45.60;10.82;;;12.70;99.90;;;;;;7407767;19;19923;-88
2022/10/18 05:22:53;;;;;;;83.32;13.27;;;12.60;99.90;;;;;;7409215;19;19946;-88
2022/10/18 05:25:22;;;;;;;70.43;13.43;;;12.60;99.90;;;;;;7407264;19;19915;-88
2022/10/18 05:27:51;;;;;;;140.45;16.50;;;12.60;99.90;;;;;;7410980;19;19915;-88
2022/10/18 05:30:20;;;;;;;121.45;16.52;;;12.60;99.90;;;;;;7407142;19;19918;-88
2022/10/18 05:32:51;;;;;;;73.07;10.38;;;12.60;99.90;;;;;;7408861;19;19922;-88
2022/10/18 05:35:20;;;;;;;63.63;9.63;;;12.60;99.90;;;;;;7408551;19;19914;-88
2022/10/18 05:37:49;;;;;;;21.20;5.82;;;12.70;99.90;;;;;;7410665;19;19942;-88
2022/10/18 05:40:18;;;;;;;38.25;8.52;;;12.70;99.90;;;;;;7410822;19;19927;-88
2022/10/18 05:42:47;;;;;;;61.83;11.23;;;12.70;99.90;;;;;;7408325;19;19926;-88
2022/10/18 05:45:16;;;;;;;50.80;8.52;;;12.70;99.90;;;;;;7408618;19;19981;-88
2022/10/18 05:47:45;;;;;;;58.40;9.65;;;12.60;99.90;;;;;;7406330;19;19918;-88
2022/10/18 05:50:17;;;;;;;74.45;9.70;;;12.60;99.90;;;;;;7406920;19;19946;-88
2022/10/18 05:52:45;;;;;;;82.32;11.40;;;12.60;99.90;;;;;;7406929;19;19946;-90
2022/10/18 05:55:16;;;;;;;42.90;8.43;;;12.60;99.90;;;;;;7410316;19;19954;-96
2022/10/18 05:57:51;;;;;;;399.38;43.25;;;12.60;99.90;;;;;;7410790;19;19915;-89
2022/10/18 06:00:20;;;;;;;185.20;17.42;;;12.50;99.90;;;;;;7412092;19;19922;-96
2022/10/18 06:02:49;;;;;;;1750.85;191.10;;;12.60;99.90;;;;;;7409147;19;20002;-87
2022/10/18 06:05:21;;;;;;;361.05;36.03;;;12.70;99.90;;;;;;7405534;19;19930;-87
2022/10/18 06:07:50;;;;;;;181.38;16.50;;;12.80;99.90;;;;;;7408233;19;19918;-90
2022/10/18 06:10:19;;;;;;;581.83;64.82;;;12.80;99.90;;;;;;7405303;19;20186;-89
2022/10/18 06:12:47;;;;;;;213.65;18.27;;;12.70;99.90;;;;;;7409197;19;19941;-91
2022/10/18 06:15:17;;;;;;;112.35;13.65;;;12.70;99.90;;;;;;7409353;19;20341;-90
2022/10/18 06:17:45;;;;;;;422.30;45.75;;;12.60;99.90;;;;;;7409561;19;19915;-89
2022/10/18 06:20:14;;;;;;;97.55;12.13;;;12.50;99.90;;;;;;7404726;19;20256;-85
2022/10/18 06:22:46;;;;;;;56.45;11.10;;;12.50;99.90;;;;;;7408574;19;20311;-86
2022/10/18 06:25:15;;;;;;;148.82;15.48;;;12.50;99.90;;;;;;7407020;19;19918;-87
2022/10/18 06:27:44;;;;;;;94.88;10.35;;;12.50;99.90;;;;;;7406264;19;19923;-86
2022/10/18 06:30:14;;;;;;;127.28;14.43;;;12.50;99.90;;;;;;7409273;19;19925;-87
2022/10/18 06:32:43;;;;;;;127.70;12.95;;;12.50;99.90;;;;;;7404786;19;19922;-86
2022/10/18 06:35:12;;;;;;;57.28;7.93;;;12.40;99.90;;;;;;7409190;19;19922;-86
2022/10/18 06:37:41;;;;;;;91.57;11.20;;;12.40;99.90;;;;;;7405958;19;19914;-86
2022/10/18 06:40:13;;;;;;;125.20;13.88;;;12.30;99.90;;;;;;7404904;19;20340;-86
2022/10/18 06:42:42;;;;;;;109.53;14.68;;;12.30;99.90;;;;;;7406826;19;20328;-86
2022/10/18 06:45:11;;;;;;;98.75;14.20;;;12.30;99.90;;;;;;7405175;19;19989;-86
2022/10/18 06:47:40;;;;;;;185.02;19.58;;;12.20;99.90;;;;;;7404563;19;20271;-87
2022/10/18 06:50:10;;;;;;;130.00;17.10;;;12.20;99.90;;;;;;7404669;19;20348;-86
2022/10/18 06:52:40;;;;;;;133.02;15.52;;;12.20;99.90;;;;;;7408043;19;19918;-87
2022/10/18 06:55:12;;;;;;;;;;;12.20;99.90;;;;;;7408490;19;20064;-87
2022/10/18 06:57:41;;;;;;;153.68;19.10;;;12.20;99.90;;;;;;7404209;19;20008;-86
2022/10/18 07:00:11;;;;;;;124.57;15.32;;;12.20;99.90;;;;;;7404529;19;19914;-87
2022/10/18 07:02:40;;;;;;;108.75;12.68;;;12.20;99.90;;;;;;7406523;19;19925;-86
2022/10/18 07:05:10;;;;;;;131.23;12.18;;;12.30;99.90;;;;;;7406458;19;19990;-87
2022/10/18 07:07:39;;;;;;;100.25;13.43;;;12.20;99.90;;;;;;7404233;19;19982;-86
2022/10/18 07:10:09;;;;;;;92.70;12.52;;;12.20;99.90;;;;;;7403931;19;19962;-86
2022/10/18 07:12:40;;;;;;;118.38;14.07;;;12.20;99.90;;;;;;7404372;19;19919;-86
2022/10/18 07:15:10;;;;;;;76.85;10.63;;;12.20;99.90;;;;;;7404314;19;19974;-86
2022/10/18 07:17:40;;;;;;;106.57;11.55;;;12.30;99.90;;;;;;7403780;19;19914;-86
2022/10/18 07:20:10;;;;;;;67.75;11.88;;;12.40;99.90;;;;;;7404521;19;20288;-87
2022/10/18 07:22:39;;;;;;;40.80;9.55;;;12.50;99.90;;;;;;7404075;19;19915;-87
2022/10/18 07:25:09;;;;;;;55.80;10.60;;;12.60;99.90;;;;;;7405751;19;19939;-87
2022/10/18 07:27:43;;;;;;;53.08;10.45;;;12.70;99.90;;;;;;7406092;19;19927;-87
2022/10/18 07:30:13;;;;;;;57.25;9.32;;;12.70;99.90;;;;;;7405682;19;19974;-87
2022/10/18 07:32:42;;;;;;;58.67;9.15;;;12.60;99.90;;;;;;7404185;19;19925;-87
2022/10/18 07:35:11;;;;;;;69.63;9.18;;;12.50;99.90;;;;;;7406248;19;20641;-87
2022/10/18 07:37:40;;;;;;;42.50;10.63;;;12.40;99.90;;;;;;7403104;19;19911;-86
2022/10/18 07:40:10;;;;;;;44.22;8.55;;;12.50;99.90;;;;;;7402916;19;19967;-86
2022/10/18 07:42:42;;;;;;;30.85;8.25;;;12.50;99.90;;;;;;7403060;19;19974;-87
2022/10/18 07:45:12;;;;;;;37.28;8.23;;;12.50;99.90;;;;;;7400059;19;19934;-87
2022/10/18 07:47:41;;;;;;;32.65;7.75;;;12.60;99.90;;;;;;7403200;19;19922;-86
2022/10/18 07:50:11;;;;;;;237.82;22.80;;;12.60;99.90;;;;;;7405443;19;20381;-87
2022/10/18 07:52:39;;;;;;;47.30;8.75;;;12.60;99.90;;;;;;7402710;19;19915;-87
2022/10/18 07:55:09;;;;;;;50.17;8.90;;;12.60;99.90;;;;;;7403045;19;19942;-87
2022/10/18 07:57:38;;;;;;;62.28;8.48;;;12.70;99.90;;;;;;7412586;19;20338;-86
2022/10/18 08:00:11;;;;;;;39.78;7.95;;;12.80;99.90;;;;;;7409707;19;20359;-86
2022/10/18 08:02:40;;;;;;;145.35;14.30;;;12.90;99.90;;;;;;7410495;19;19918;-86
2022/10/18 08:05:09;;;;;;;28.70;7.18;;;12.90;99.90;;;;;;7409466;19;19943;-86
2022/10/18 08:07:38;;;;;;;21.13;7.57;;;13.00;99.90;;;;;;7409185;19;19922;-86
2022/10/18 08:10:08;;;;;;;21.17;5.90;;;13.10;99.90;;;;;;7404678;19;20335;-87
2022/10/18 08:12:37;;;;;;;116.28;11.85;;;13.10;99.90;;;;;;7412231;19;20442;-86
2022/10/18 08:15:09;;;;;;;15.05;6.28;;;13.00;99.90;;;;;;7412418;19;19926;-86
2022/10/18 08:17:38;;;;;;;16.50;6.32;;;13.00;99.90;;;;;;7412770;19;19922;-86
2022/10/18 08:20:07;;;;;;;22.30;5.88;;;12.90;99.90;;;;;;7409219;19;19928;-87
2022/10/18 08:22:36;;;;;;;16.48;6.20;;;12.90;99.90;;;;;;7409513;19;19914;-87
2022/10/18 08:25:06;;;;;;;17.15;6.30;;;12.80;99.90;;;;;;7408255;19;19986;-86
2022/10/18 08:27:35;;;;;;;13.18;5.47;;;12.90;99.90;;;;;;7408408;19;19978;-87
2022/10/18 08:30:04;;;;;;;20.45;7.93;;;12.90;99.90;;;;;;7413043;19;19922;-86
2022/10/18 08:32:36;;;;;;;16.65;6.75;;;13.00;99.90;;;;;;7408948;19;19910;-86
2022/10/18 08:35:05;;;;;;;16.15;5.65;;;13.10;99.90;;;;;;7411215;19;19918;-86
2022/10/18 08:37:34;;;;;;;21.77;6.65;;;13.20;99.90;;;;;;7409801;19;20372;-87
2022/10/18 08:40:03;;;;;;;14.05;5.57;;;13.40;99.90;;;;;;7409371;19;19929;-87
2022/10/18 08:42:47;;;;;;;16.80;6.10;;;13.30;99.90;;;;;;7411199;19;20006;-87
2022/10/18 08:45:17;;;;;;;14.77;6.30;;;13.40;99.90;;;;;;7406702;19;19914;-86
2022/10/18 08:47:52;;;;;;;;;;;13.60;99.90;;;;;;7411636;19;19931;-87
2022/10/18 08:50:24;;;;;;;12.45;5.38;;;13.70;99.90;;;;;;7408902;19;19949;-87
2022/10/18 08:52:58;;;;;;;13.77;6.45;;;13.80;99.90;;;;;;7407972;19;19978;-87
2022/10/18 08:55:35;;;;;;;16.75;7.32;;;13.80;99.90;;;;;;7410503;19;19930;-86
2022/10/18 08:58:04;;;;;;;16.25;7.05;;;13.80;99.90;;;;;;7407775;19;19922;-86
2022/10/18 09:00:39;;;;;;;12.27;4.97;;;13.90;99.90;;;;;;7407967;19;20499;-87
2022/10/18 09:03:27;;;;;;;14.50;4.57;;;14.00;99.90;;;;;;7407896;19;19922;-87
2022/10/18 09:06:02;;;;;;;12.00;4.30;;;14.10;99.90;;;;;;7406385;19;19919;-87
2022/10/18 09:08:55;;;;;;;9.02;3.90;;;14.30;99.90;;;;;;7405068;19;19910;-87
2022/10/18 09:11:35;;;;;;;12.57;5.05;;;14.40;99.90;;;;;;7407267;19;19921;-87
2022/10/18 09:14:32;;;;;;;9.85;4.97;;;14.50;99.90;;;;;;7407636;19;19966;-86
2022/10/18 09:17:09;;;;;;;11.93;3.85;;;14.70;99.90;;;;;;7406605;19;19925;-87
2022/10/18 09:19:54;;;;;;;8.60;3.70;;;14.80;99.90;;;;;;7407359;19;19914;-86
2022/10/18 09:22:31;;;;;;;6.82;2.15;;;14.70;99.90;;;;;;7410668;19;19910;-87
2022/10/18 09:25:07;;;;;;;13.65;4.72;;;14.80;99.90;;;;;;7407507;19;19922;-87
2022/10/18 09:27:42;;;;;;;8.52;2.72;;;14.90;99.90;;;;;;7407036;19;20313;-87
2022/10/18 09:30:20;;;;;;;10.32;3.53;;;14.80;99.90;;;;;;7407284;19;19915;-87
2022/10/18 09:32:56;;;;;;;6.80;3.10;;;15.00;99.90;;;;;;7407969;19;19923;-87
2022/10/18 09:35:32;;;;;;;11.25;2.92;;;15.10;99.90;;;;;;7406783;19;19925;-87
2022/10/18 09:38:06;;;;;;;7.68;2.40;;;15.30;99.90;;;;;;7406217;19;19910;-87
2022/10/18 09:40:40;;;;;;;6.68;2.22;;;15.40;99.90;;;;;;7406982;19;19914;-87
2022/10/18 09:43:15;;;;;;;12.82;3.05;;;15.50;99.90;;;;;;7405093;19;19915;-87
2022/10/18 09:45:47;;;;;;;8.77;2.97;;;15.60;99.90;;;;;;7406264;19;19930;-87
2022/10/18 09:48:21;;;;;;;9.50;2.80;;;15.70;99.90;;;;;;7405954;19;20329;-87
2022/10/18 09:50:59;;;;;;;7.65;2.20;;;15.70;99.90;;;;;;7404759;19;19931;-87
2022/10/18 09:53:36;;;;;;;7.22;2.83;;;15.80;99.90;;;;;;7406219;19;19914;-89
2022/10/18 09:56:09;;;;;;;7.90;2.00;;;15.80;99.90;;;;;;7405787;19;19926;-88
2022/10/18 09:58:50;;;;;;;7.53;1.67;;;15.80;99.90;;;;;;7409984;19;19919;-88
2022/10/18 10:01:23;;;;;;;8.75;1.75;;;15.90;99.90;;;;;;7408983;19;19914;-88
2022/10/18 10:03:52;;;;;;;7.88;1.88;;;15.90;99.90;;;;;;7407909;19;20412;-88
2022/10/18 10:06:33;;;;;;;6.28;1.50;;;16.00;99.90;;;;;;7408408;19;19914;-88
2022/10/18 10:09:07;;;;;;;5.93;1.92;;;16.10;99.90;;;;;;7406479;19;19923;-87
2022/10/18 10:11:39;;;;;;;3.20;0.60;;;16.10;99.90;;;;;;7405693;19;20358;-89
2022/10/18 10:14:11;;;;;;;6.40;1.23;;;16.10;99.90;;;;;;7408162;19;19946;-89
2022/10/18 10:16:48;;;;;;;2.88;1.02;;;16.20;99.90;;;;;;7406117;19;19922;-89
2022/10/18 10:19:20;;;;;;;6.68;1.52;;;16.20;99.90;;;;;;7407820;19;19921;-88
2022/10/18 10:21:54;;;;;;;4.57;1.33;;;16.40;99.90;;;;;;7405254;19;19918;-88
2022/10/18 10:24:28;;;;;;;6.68;1.88;;;16.40;99.90;;;;;;7404072;19;19918;-89
2022/10/18 10:27:06;;;;;;;6.90;1.33;;;16.50;99.90;;;;;;7404214;19;19926;-89
2022/10/18 10:29:55;;;;;;;9.98;1.45;;;16.60;99.90;;;;;;7407007;19;19923;-89
2022/10/18 10:32:27;;;;;;;7.20;1.08;;;16.60;99.90;;;;;;7408450;19;20283;-90
2022/10/18 10:34:57;;;;;;;2.92;1.02;;;16.70;99.90;;;;;;7405619;19;19970;-90
2022/10/18 10:37:31;;;;;;;6.43;1.38;;;16.70;99.90;;;;;;7406367;19;19929;-90
2022/10/18 10:40:17;;;;;;;8.75;1.27;;;16.60;99.90;;;;;;7405186;19;19924;-89
2022/10/18 10:43:17;;;;;;;7.72;1.42;;;16.60;99.90;;;;;;7404914;19;20255;-90
2022/10/18 10:45:59;;;;;;;5.35;0.63;;;16.50;99.90;;;;;;7403808;19;19949;-90
2022/10/18 10:48:29;;;;;;;7.90;1.00;;;16.50;99.90;;;;;;7404565;19;19925;-90
2022/10/18 10:51:02;;;;;;;8.98;1.65;;;16.60;99.90;;;;;;7402586;19;19982;-89
2022/10/18 10:53:39;;;;;;;5.75;0.40;;;16.70;99.90;;;;;;7404808;19;20311;-90
2022/10/18 10:56:15;;;;;;;5.38;0.73;;;16.70;99.90;;;;;;7406898;19;19926;-88
2022/10/18 10:58:44;;;;;;;8.23;1.08;;;16.60;99.90;;;;;;7405027;19;19919;-89
2022/10/18 11:01:26;;;;;;;9.35;1.02;;;16.70;99.90;;;;;;7403947;19;19919;-88
2022/10/18 11:03:58;;;;;;;4.60;0.52;;;16.70;99.90;;;;;;7409460;19;19994;-87
2022/10/18 11:06:53;;;;;;;6.13;1.55;;;16.80;99.90;;;;;;7407328;19;19934;-87
2022/10/18 11:09:33;;;;;;;5.90;0.40;;;16.90;99.90;;;;;;7405931;19;19927;-91
2022/10/18 11:12:22;;;;;;;5.22;0.43;;;16.90;99.90;;;;;;7407644;19;19922;-89
2022/10/18 11:15:00;;;;;;;8.20;1.08;;;17.00;99.90;;;;;;7408832;19;19925;-92
2022/10/18 11:17:36;;;;;;;9.13;1.10;;;17.00;99.90;;;;;;7404547;19;19911;-91
2022/10/18 11:20:24;;;;;;;10.77;1.10;;;17.10;99.90;;;;;;7409819;19;19950;-88
2022/10/18 11:23:02;;;;;;;7.82;0.82;;;17.20;99.90;;;;;;7408262;19;19922;-92
2022/10/18 11:25:55;;;;;;;8.10;0.85;;;17.40;99.90;;;;;;7403528;19;19917;-87
2022/10/18 11:28:35;;;;;;;3.97;0.57;;;17.60;99.90;;;;;;7405871;19;19981;-87
2022/10/18 11:31:15;;;;;;;7.25;0.70;;;17.70;99.90;;;;;;7406858;19;19933;-88
2022/10/18 11:33:56;;;;;;;6.63;1.02;;;17.70;99.90;;;;;;7412170;19;19940;-87
2022/10/18 11:36:31;;;;;;;7.07;1.35;;;17.40;99.90;;;;;;7411570;19;19926;-87
2022/10/18 11:39:09;;;;;;;6.18;0.93;;;17.10;99.90;;;;;;7413076;19;19920;-87
2022/10/18 11:42:10;;;;;;;9.35;0.57;;;17.10;99.90;;;;;;7409837;19;19953;-87
2022/10/18 11:44:46;;;;;;;6.90;1.05;;;17.10;99.90;;;;;;7411790;19;19983;-87
2022/10/18 11:47:42;;;;;;;7.80;1.13;;;17.00;99.90;;;;;;7408709;19;20289;-87
2022/10/18 11:50:25;;;;;;;5.00;0.50;;;16.70;99.90;;;;;;7411312;19;19922;-88
2022/10/18 11:53:21;;;;;;;7.43;0.60;;;16.40;99.90;;;;;;7411928;19;20336;-87
2022/10/18 11:56:01;;;;;;;6.95;0.90;;;16.20;99.90;;;;;;7409201;19;19922;-88
2022/10/18 11:58:51;;;;;;;8.55;0.75;;;16.10;99.90;;;;;;7413173;19;19974;-87
2022/10/18 12:01:31;;;;;;;9.73;0.68;;;16.00;99.90;;;;;;7413178;19;19925;-87
2022/10/18 12:04:08;;;;;;;7.97;0.93;;;16.00;99.90;;;;;;7408903;19;20337;-87
2022/10/18 12:06:41;;;;;;;5.78;0.50;;;16.10;99.90;;;;;;7409224;19;20305;-87
2022/10/18 12:09:20;;;;;;;5.93;0.82;;;16.40;99.90;;;;;;7409311;19;19910;-88
2022/10/18 12:11:55;;;;;;;4.32;0.52;;;16.70;99.90;;;;;;7403942;19;19930;-87
2022/10/18 12:14:31;;;;;;;5.32;0.70;;;17.10;99.90;;;;;;7412670;19;19919;-87
2022/10/18 12:17:04;;;;;;;6.70;1.20;;;17.20;99.90;;;;;;7408860;19;19929;-87
2022/10/18 12:19:36;;;;;;;7.72;0.98;;;17.30;99.90;;;;;;7411882;19;19954;-88
2022/10/18 12:22:14;;;;;;;7.13;1.00;;;17.10;99.90;;;;;;7409398;19;19910;-88
2022/10/18 12:24:44;;;;;;;10.60;0.63;;;17.00;99.90;;;;;;7408238;19;19914;-87
2022/10/18 12:27:16;;;;;;;10.20;1.73;;;16.90;99.90;;;;;;7410630;19;19919;-87
2022/10/18 12:29:52;;;;;;;10.27;0.75;;;16.70;99.90;;;;;;7409898;19;20264;-87
2022/10/18 12:32:28;;;;;;;7.15;0.65;;;16.70;99.90;;;;;;7410194;19;20392;-87
2022/10/18 12:35:01;;;;;;;6.10;0.60;;;16.80;99.90;;;;;;7410051;19;19938;-88
2022/10/18 12:37:49;;;;;;;5.00;0.68;;;16.90;99.90;;;;;;7411219;19;19923;-87
2022/10/18 12:40:22;;;;;;;3.08;0.88;;;17.00;99.90;;;;;;7408501;19;19921;-88
2022/10/18 12:42:54;;;;;;;4.05;0.50;;;17.10;99.90;;;;;;7405461;19;19919;-88
2022/10/18 12:45:33;;;;;;;2.70;0.63;;;17.30;99.90;;;;;;7410738;19;19915;-88
2022/10/18 12:48:03;;;;;;;6.53;0.90;;;17.50;99.90;;;;;;7409175;19;19914;-87
2022/10/18 12:50:36;;;;;;;8.20;0.98;;;17.60;99.90;;;;;;7408061;19;20318;-87
2022/10/18 12:53:28;;;;;;;5.35;1.10;;;17.30;99.90;;;;;;7408418;19;20780;-88
2022/10/18 12:55:57;;;;;;;8.18;0.80;;;17.00;99.90;;;;;;7408612;19;19937;-88
2022/10/18 12:58:31;;;;;;;7.50;0.77;;;16.80;99.90;;;;;;7411052;19;19923;-87
2022/10/18 13:01:06;;;;;;;7.10;1.30;;;16.70;99.90;;;;;;7408720;19;19921;-88
2022/10/18 13:03:58;;;;;;;7.72;0.98;;;16.70;99.90;;;;;;7410729;19;19922;-87